Weather History for KRKD - January, 2014

Change the Weather History Date:

Friday, January 3, 2014

  Actual Average (KAUG) Record (KAUG)
Temperature  
Mean Temperature -2 °F 20 °F  
Max Temperature 3 °F 28 °F - ()
Min Temperature -7 °F 12 °F - ()
Degree Days  
Heating Degree Days 67 45  
Month to date heating degree days 133  
Since 1 July heating degree days 2888  
Cooling Degree Days 0 0  
Month to date cooling degree days 0  
Year to date cooling degree days 0  
Moisture  
Dew Point -9 °F    
Average Humidity 73    
Maximum Humidity 92    
Minimum Humidity 51    
Precipitation  
Precipitation 0.00 in 0.09 in - ()
Month to date precipitation 0.26  
Year to date precipitation 0.26  
Sea Level Pressure  
Sea Level Pressure 30.02 in    
Wind  
Wind Speed 11 mph (NNW)    
Max Wind Speed 20 mph    
Max Gust Speed 30 mph    
Visibility 5 miles    
Events      
T = Trace of Precipitation, MM = Missing Value Source: NWS Daily Summary

Daily Weather History Graph

Daily Weather History Graph

Search for Another Location

Airport or City:

Trip Planner

Search our weather history database for the weather conditions in past years. The results will help you decide how hot, cold, wet, or windy it might be!

Date:

Astronomy

Jan. 03, 2014 Rise Set
Actual Time 7:11 AM EST 4:10 PM EST
Civil Twilight 6:38 AM EST 4:43 PM EST
Nautical Twilight 6:02 AM EST 5:19 PM EST
Astronomical Twilight 5:27 AM EST 5:54 PM EST
Moon 8:28 AM EST (1/3) 7:22 PM EST (1/3)
Length of Visible Light 10h 05m
Length of Day
8h 59m
Waxing Crescent, 8% of the Moon is Illuminated
Jan 3
Waxing Crescent
Jan 7
First Quarter
Jan 15
Full
Jan 24
Last Quarter
Jan 30
New

Hourly Weather History & Observations

Time (EST) Temp. Windchill Dew Point Humidity Pressure Visibility Wind Dir Wind Speed Gust Speed Precip Events Conditions
12:15 AM -2.2 °F -20.7 °F -5.8 °F 85% 29.97 in 0.5 mi NNE 12.7 mph 19.6 mph N/A   Overcast
12:35 AM -0.4 °F -19.2 °F -4.0 °F 85% 29.96 in 0.5 mi NNE 13.8 mph 26.5 mph N/A   Overcast
12:55 AM -2.2 °F -18.0 °F -5.8 °F 85% 29.96 in 0.5 mi North 9.2 mph 19.6 mph N/A   Overcast
1:15 AM -2.2 °F -18.0 °F -5.8 °F 85% 29.95 in 0.5 mi North 9.2 mph 25.3 mph N/A   Overcast
1:35 AM -2.2 °F -18.9 °F -7.6 °F 78% 29.96 in 0.8 mi North 10.4 mph 19.6 mph N/A   Overcast
1:55 AM -4.0 °F -24.5 °F -7.6 °F 85% 29.95 in 0.8 mi North 15.0 mph 24.2 mph N/A   Overcast
2:15 AM -4.0 °F -22.1 °F -5.8 °F 92% 29.93 in 0.8 mi North 11.5 mph 26.5 mph N/A   Overcast
2:35 AM -4.0 °F -21.2 °F -7.6 °F 85% 29.92 in 0.8 mi North 10.4 mph 23.0 mph N/A   Overcast
2:55 AM -4.0 °F -22.1 °F -7.6 °F 85% 29.91 in 0.8 mi North 11.5 mph 25.3 mph N/A   Overcast
3:15 AM -4.0 °F -22.1 °F -5.8 °F 92% 29.88 in 1.0 mi North 11.5 mph 25.3 mph N/A   Overcast
3:35 AM -4.0 °F -24.5 °F -5.8 °F 92% 29.87 in 0.8 mi North 15.0 mph 26.5 mph N/A   Overcast
3:55 AM -4.0 °F -27.0 °F -5.8 °F 92% 29.86 in 0.8 mi North 19.6 mph 29.9 mph N/A   Overcast
4:15 AM -4.0 °F -21.2 °F -7.6 °F 85% 29.87 in 0.8 mi North 10.4 mph 23.0 mph N/A   Overcast
4:35 AM -4.0 °F -25.2 °F -7.6 °F 85% 29.86 in 0.8 mi North 16.1 mph 28.8 mph N/A   Overcast
4:55 AM -4.0 °F -25.2 °F -5.8 °F 92% 29.84 in 0.8 mi North 16.1 mph 27.6 mph N/A   Overcast
5:15 AM -4.0 °F -24.5 °F -7.6 °F 85% 29.81 in 0.8 mi North 15.0 mph 29.9 mph N/A   Overcast
5:35 AM -4.0 °F -23.0 °F -5.8 °F 92% 29.82 in 0.8 mi North 12.7 mph 26.5 mph N/A   Overcast
5:55 AM -4.0 °F -24.5 °F -7.6 °F 85% 29.83 in 0.5 mi North 15.0 mph 27.6 mph N/A   Overcast
6:15 AM -4.0 °F -21.2 °F -5.8 °F 92% 29.84 in 0.8 mi North 10.4 mph 24.2 mph N/A   Overcast
6:35 AM -4.0 °F -23.0 °F -7.6 °F 85% 29.85 in 0.8 mi North 12.7 mph 27.6 mph N/A   Overcast
6:55 AM -4.0 °F -23.0 °F -5.8 °F 92% 29.85 in 1.0 mi North 12.7 mph 23.0 mph N/A   Overcast
7:15 AM -4.0 °F -22.1 °F -7.6 °F 85% 29.84 in 0.8 mi North 11.5 mph 24.2 mph N/A   Overcast
7:35 AM -4.0 °F -21.2 °F -7.6 °F 85% 29.85 in 0.5 mi North 10.4 mph 28.8 mph N/A   Overcast
7:55 AM -4.0 °F -23.7 °F -7.6 °F 85% 29.85 in 0.5 mi North 13.8 mph 24.2 mph N/A   Overcast
8:15 AM -4.0 °F -23.0 °F -7.6 °F 85% 29.86 in 0.5 mi North 12.7 mph 20.7 mph N/A   Overcast
8:35 AM -4.0 °F -20.2 °F -7.6 °F 85% 29.87 in 0.5 mi North 9.2 mph 19.6 mph N/A   Overcast
8:55 AM -4.0 °F -21.2 °F -7.6 °F 85% 29.87 in 0.8 mi North 10.4 mph 19.6 mph N/A   Overcast
9:15 AM -4.0 °F -21.2 °F -9.4 °F 78% 29.88 in 0.8 mi NNW 10.4 mph 17.3 mph N/A   Overcast
9:35 AM -4.0 °F -20.2 °F -7.6 °F 85% 29.88 in 0.8 mi North 9.2 mph 21.9 mph N/A   Overcast
9:55 AM -4.0 °F -22.1 °F -9.4 °F 78% 29.88 in 0.8 mi NNW 11.5 mph 20.7 mph N/A   Overcast
10:15 AM -2.2 °F -20.7 °F -7.6 °F 78% 29.88 in 0.8 mi NNW 12.7 mph 19.6 mph N/A   Overcast
10:35 AM -2.2 °F -19.9 °F -7.6 °F 78% 29.88 in 1.2 mi NNW 11.5 mph 21.9 mph N/A   Overcast
10:55 AM -0.4 °F -17.6 °F -5.8 °F 78% 29.88 in 2.5 mi NNW 11.5 mph 16.1 mph N/A   Overcast
11:15 AM -0.4 °F -17.6 °F -7.6 °F 72% 29.88 in 3.0 mi NNW 11.5 mph 18.4 mph N/A   Overcast
11:35 AM -0.4 °F -15.7 °F -5.8 °F 78% 29.88 in 2.5 mi North 9.2 mph 23.0 mph N/A   Mostly Cloudy
11:55 AM -0.4 °F -16.7 °F -7.6 °F 72% 29.89 in 4.0 mi NNW 10.4 mph 19.6 mph N/A   Mostly Cloudy
12:15 PM -0.4 °F -14.7 °F -7.6 °F 72% 29.89 in 8.0 mi NNW 8.1 mph 18.4 mph N/A   Partly Cloudy
12:35 PM -0.4 °F -17.6 °F -5.8 °F 78% 29.91 in 10.0 mi NNW 11.5 mph 23.0 mph N/A   Scattered Clouds
12:55 PM -0.4 °F -15.7 °F -7.6 °F 72% 29.92 in 10.0 mi NNW 9.2 mph 18.4 mph N/A   Mostly Cloudy
1:15 PM -0.4 °F -19.2 °F -7.6 °F 72% 29.93 in 10.0 mi NW 13.8 mph 20.7 mph N/A   Scattered Clouds
1:35 PM -0.4 °F -17.6 °F -9.4 °F 66% 29.95 in 10.0 mi NNW 11.5 mph 21.9 mph N/A   Scattered Clouds
1:55 PM 1.4 °F -16.1 °F -11.2 °F 56% 29.96 in 10.0 mi NW 12.7 mph 19.6 mph N/A   Partly Cloudy
2:15 PM 1.4 °F -15.3 °F -11.2 °F 56% 29.97 in 10.0 mi NW 11.5 mph 19.6 mph N/A   Clear
2:35 PM 3.2 °F -10.3 °F -9.4 °F 56% 29.99 in 10.0 mi NNW 8.1 mph 17.3 mph N/A   Partly Cloudy
2:55 PM 3.2 °F -9.1 °F -9.4 °F 56% 30.01 in 10.0 mi NNW 6.9 mph - N/A   Partly Cloudy
3:15 PM 1.4 °F -13.5 °F -11.2 °F 56% 30.02 in 10.0 mi NW 9.2 mph 16.1 mph N/A   Clear
3:35 PM 1.4 °F -15.3 °F -9.4 °F 61% 30.05 in 1.0 mi NW 11.5 mph 23.0 mph N/A   Clear
3:55 PM 1.4 °F -12.5 °F -9.4 °F 61% 30.07 in 10.0 mi NW 8.1 mph 18.4 mph N/A   Clear
4:15 PM 1.4 °F -12.5 °F -9.4 °F 61% 30.08 in 10.0 mi NNW 8.1 mph - N/A   Clear
4:35 PM 1.4 °F -11.3 °F -11.2 °F 56% 30.09 in 10.0 mi NW 6.9 mph - N/A   Clear
4:55 PM 1.4 °F -12.5 °F -9.4 °F 61% 30.11 in 10.0 mi NW 8.1 mph - N/A   Clear
5:15 PM 1.4 °F -9.9 °F -9.4 °F 61% 30.13 in 10.0 mi NW 5.8 mph - N/A   Clear
5:35 PM 1.4 °F -11.3 °F -9.4 °F 61% 30.15 in 10.0 mi NW 6.9 mph - N/A   Clear
5:55 PM -0.4 °F -13.4 °F -11.2 °F 60% 30.16 in 10.0 mi North 6.9 mph - N/A   Clear
6:15 PM -0.4 °F -12.0 °F -11.2 °F 60% 30.18 in 10.0 mi NW 5.8 mph - N/A   Clear
6:35 PM -0.4 °F -13.4 °F -11.2 °F 60% 30.20 in 10.0 mi North 6.9 mph - N/A   Clear
6:55 PM -0.4 °F -12.0 °F -11.2 °F 60% 30.22 in 10.0 mi NNW 5.8 mph - N/A   Clear
7:15 PM -0.4 °F -13.4 °F -11.2 °F 60% 30.23 in 10.0 mi NNW 6.9 mph - N/A   Clear
7:35 PM -0.4 °F -16.7 °F -11.2 °F 60% 30.24 in 10.0 mi NW 10.4 mph 17.3 mph N/A   Clear
7:55 PM -0.4 °F -13.4 °F -13.0 °F 55% 30.24 in 10.0 mi NW 6.9 mph 25.3 mph N/A   Clear
8:15 PM -0.4 °F -14.7 °F -11.2 °F 60% 30.26 in 10.0 mi NW 8.1 mph 16.1 mph N/A   Clear
8:35 PM -0.4 °F -10.4 °F -14.8 °F 51% 30.28 in 10.0 mi North 4.6 mph - N/A   Clear
8:55 PM -0.4 °F - -13.0 °F 55% 30.28 in 10.0 mi Calm Calm - N/A   Clear
9:15 PM -2.2 °F -10.4 °F -14.8 °F 55% 30.29 in 10.0 mi NNW 3.5 mph - N/A   Clear
9:35 PM -2.2 °F - -13.0 °F 60% 30.30 in 10.0 mi Calm Calm - N/A   Clear
9:55 PM -2.2 °F -12.5 °F -13.0 °F 60% 30.30 in 10.0 mi WNW 4.6 mph - N/A   Clear
10:15 PM -4.0 °F -12.4 °F -16.6 °F 55% 30.31 in 10.0 mi SW 3.5 mph - N/A   Clear
10:35 PM -4.0 °F -14.6 °F -9.4 °F 78% 30.31 in 10.0 mi WNW 4.6 mph - N/A   Clear
10:55 PM -5.8 °F - -14.8 °F 65% 30.31 in 10.0 mi Calm Calm - N/A   Clear
11:15 PM -5.8 °F - -14.8 °F 65% 30.33 in 10.0 mi Calm Calm - N/A   Clear
11:35 PM -7.6 °F - -11.2 °F 84% 30.33 in 10.0 mi Calm Calm - N/A   Clear
11:55 PM -5.8 °F -18.4 °F -11.2 °F 77% 30.34 in 10.0 mi West 5.8 mph - N/A   Clear